createdAt,value
2018-08-17T00:00:10.468Z,19.33
2018-08-17T00:00:41.594Z,17.80
2018-08-17T00:01:12.755Z,18.23
2018-08-17T00:01:43.876Z,19.67
2018-08-17T00:02:15.049Z,19.23
2018-08-17T00:02:46.229Z,18.07
2018-08-17T00:03:17.850Z,18.23
2018-08-17T00:03:49.105Z,19.67
2018-08-17T00:04:20.263Z,16.77
2018-08-17T00:04:51.420Z,18.20
2018-08-17T00:05:22.605Z,17.57
2018-08-17T00:05:53.790Z,18.17
2018-08-17T00:06:24.969Z,18.07
2018-08-17T00:06:56.082Z,16.37
2018-08-17T00:07:27.251Z,19.03
2018-08-17T00:07:58.475Z,17.87
2018-08-17T00:08:29.587Z,18.83
2018-08-17T00:09:00.701Z,18.87
2018-08-17T00:09:31.876Z,18.63
2018-08-17T00:10:03.003Z,18.67
2018-08-17T00:10:34.168Z,17.80
2018-08-17T00:11:05.297Z,18.03
2018-08-17T00:11:36.522Z,17.97
2018-08-17T00:12:07.641Z,18.60
2018-08-17T00:12:38.804Z,19.03
2018-08-17T00:13:10.027Z,19.63
2018-08-17T00:13:41.147Z,19.63
2018-08-17T00:14:12.312Z,19.47
2018-08-17T00:14:43.476Z,17.33
2018-08-17T00:15:14.654Z,18.50
2018-08-17T00:15:45.808Z,18.53
2018-08-17T00:16:16.980Z,18.40
2018-08-17T00:16:48.190Z,17.60
2018-08-17T00:17:19.374Z,18.33
2018-08-17T00:17:50.491Z,16.73
2018-08-17T00:18:21.712Z,16.45
2018-08-17T00:18:52.888Z,17.20
2018-08-17T00:19:24.014Z,17.17
2018-08-17T00:19:55.139Z,17.12
2018-08-17T00:20:26.260Z,17.73
2018-08-17T00:20:57.375Z,17.10
2018-08-17T00:21:28.613Z,17.97
2018-08-17T00:21:59.740Z,17.12
2018-08-17T00:22:30.852Z,16.07
2018-08-17T00:23:02.081Z,16.27
2018-08-17T00:23:33.240Z,15.63
2018-08-17T00:24:04.356Z,17.20
2018-08-17T00:24:35.528Z,17.47
2018-08-17T00:25:06.656Z,17.62
2018-08-17T00:25:37.763Z,17.70
2018-08-17T00:26:08.869Z,18.63
2018-08-17T00:26:40.049Z,17.00
2018-08-17T00:27:11.173Z,16.97
2018-08-17T00:27:42.393Z,17.83
2018-08-17T00:28:13.575Z,18.17
2018-08-17T00:28:44.693Z,17.80
2018-08-17T00:29:15.847Z,18.20
2018-08-17T00:29:46.963Z,16.57
2018-08-17T00:30:18.084Z,19.10
2018-08-17T00:30:49.256Z,17.60
2018-08-17T00:31:20.368Z,17.53
2018-08-17T00:31:51.545Z,16.67
2018-08-17T00:32:22.689Z,17.75
2018-08-17T00:32:53.917Z,17.23
2018-08-17T00:33:25.097Z,17.87
2018-08-17T00:33:56.212Z,17.77
2018-08-17T00:34:27.387Z,15.90
2018-08-17T00:34:58.566Z,16.03
2018-08-17T00:35:29.781Z,15.43
2018-08-17T00:36:00.913Z,16.53
2018-08-17T00:36:32.090Z,15.10
2018-08-17T00:37:03.330Z,17.20
2018-08-17T00:37:34.455Z,16.83
2018-08-17T00:38:05.617Z,15.27
2018-08-17T00:38:36.768Z,15.07
2018-08-17T00:39:07.886Z,15.47
2018-08-17T00:39:39.064Z,15.00
2018-08-17T00:40:10.240Z,16.60
2018-08-17T00:40:41.360Z,16.93
2018-08-17T00:41:12.531Z,16.90
2018-08-17T00:41:43.704Z,16.80
2018-08-17T00:42:14.816Z,17.53
2018-08-17T00:42:45.935Z,17.47
2018-08-17T00:43:17.112Z,17.27
2018-08-17T00:43:48.259Z,14.70
2018-08-17T00:44:19.374Z,16.60
2018-08-17T00:44:50.544Z,17.70
2018-08-17T00:45:21.776Z,16.80
2018-08-17T00:45:52.923Z,17.03
2018-08-17T00:46:24.105Z,17.07
2018-08-17T00:46:55.285Z,17.97
2018-08-17T00:47:26.443Z,17.63
2018-08-17T00:47:57.666Z,16.47
2018-08-17T00:48:28.845Z,16.80
2018-08-17T00:49:00.009Z,17.77
2018-08-17T00:49:32.126Z,17.73
2018-08-17T00:50:03.252Z,16.13
2018-08-17T00:50:34.448Z,16.93
2018-08-17T00:51:05.690Z,17.20
2018-08-17T00:51:36.829Z,17.40
2018-08-17T00:52:08.013Z,16.47
2018-08-17T00:52:39.223Z,16.37
2018-08-17T00:53:10.400Z,16.93
2018-08-17T00:53:41.581Z,16.07
2018-08-17T00:54:12.708Z,15.13
2018-08-17T00:54:43.934Z,15.77
2018-08-17T00:55:15.066Z,16.30
2018-08-17T00:55:46.247Z,15.53
2018-08-17T00:56:17.490Z,14.40
2018-08-17T00:56:48.705Z,16.23
2018-08-17T00:57:19.871Z,15.03
2018-08-17T00:57:51.089Z,15.60
2018-08-17T00:58:22.260Z,15.63
2018-08-17T00:58:53.495Z,15.27
2018-08-17T00:59:24.671Z,16.12
2018-08-17T00:59:55.853Z,16.13
2018-08-17T01:00:26.968Z,15.30
2018-08-17T01:00:58.083Z,15.93
2018-08-17T01:01:29.255Z,15.47
2018-08-17T01:02:00.484Z,15.10
2018-08-17T01:02:31.674Z,15.63
2018-08-17T01:03:02.800Z,15.97
2018-08-17T01:03:33.979Z,14.97
2018-08-17T01:04:05.211Z,15.50
2018-08-17T01:04:36.441Z,16.23
2018-08-17T01:05:07.676Z,16.17
2018-08-17T01:05:38.862Z,16.23
2018-08-17T01:06:10.025Z,16.83
2018-08-17T01:06:41.261Z,16.67
2018-08-17T01:07:12.372Z,17.13
2018-08-17T01:07:43.605Z,17.40
2018-08-17T01:08:14.739Z,14.97
2018-08-17T01:08:45.898Z,16.42
2018-08-17T01:09:17.012Z,17.00
2018-08-17T01:09:48.173Z,18.17
2018-08-17T01:10:19.299Z,17.07
2018-08-17T01:10:50.468Z,16.23
2018-08-17T01:11:21.684Z,18.50
2018-08-17T01:11:52.831Z,16.83
2018-08-17T01:12:23.980Z,16.67
2018-08-17T01:12:55.135Z,16.62
2018-08-17T01:13:26.300Z,16.93
2018-08-17T01:13:57.427Z,16.87
2018-08-17T01:14:28.597Z,18.15
2018-08-17T01:14:59.732Z,16.27
2018-08-17T01:15:30.982Z,17.00
2018-08-17T01:16:02.225Z,17.10
2018-08-17T01:16:33.462Z,17.62
2018-08-17T01:17:04.632Z,16.37
2018-08-17T01:17:35.873Z,17.10
2018-08-17T01:18:07.032Z,17.77
2018-08-17T01:18:38.156Z,18.55
2018-08-17T01:19:09.334Z,17.92
2018-08-17T01:19:40.513Z,16.48
2018-08-17T01:20:11.687Z,16.77
2018-08-17T01:20:42.940Z,18.20
2018-08-17T01:21:14.182Z,18.00
2018-08-17T01:21:45.414Z,17.52
2018-08-17T01:22:16.540Z,15.67
2018-08-17T01:22:47.655Z,17.67
2018-08-17T01:23:18.778Z,17.17
2018-08-17T01:23:49.944Z,17.00
2018-08-17T01:24:21.128Z,17.45
2018-08-17T01:24:52.358Z,17.00
2018-08-17T01:25:23.533Z,17.92
2018-08-17T01:25:54.659Z,17.17
2018-08-17T01:26:25.830Z,17.32
2018-08-17T01:26:57.054Z,16.47
2018-08-17T01:27:28.293Z,17.65
2018-08-17T01:27:59.411Z,17.98
2018-08-17T01:28:30.581Z,16.97
2018-08-17T01:29:01.763Z,17.63
2018-08-17T01:29:32.893Z,17.52
2018-08-17T01:30:04.077Z,16.62
2018-08-17T01:30:35.253Z,15.95
2018-08-17T01:31:06.486Z,17.43
2018-08-17T01:31:37.660Z,17.90
2018-08-17T01:32:08.779Z,17.70
2018-08-17T01:32:39.965Z,17.30
2018-08-17T01:33:11.145Z,17.30
2018-08-17T01:33:42.321Z,17.03
2018-08-17T01:34:13.443Z,17.13
2018-08-17T01:34:44.674Z,17.27
2018-08-17T01:35:15.799Z,16.48
2018-08-17T01:35:46.919Z,16.50
2018-08-17T01:36:18.105Z,17.73
2018-08-17T01:36:49.329Z,17.42
2018-08-17T01:37:20.455Z,18.15
2018-08-17T01:37:52.476Z,19.10
2018-08-17T01:38:23.640Z,19.20
2018-08-17T01:38:54.877Z,19.52
2018-08-17T01:39:26.003Z,19.60
2018-08-17T01:39:57.172Z,18.80
2018-08-17T01:40:28.301Z,20.45
2018-08-17T01:40:59.465Z,20.60
2018-08-17T01:41:30.591Z,20.75
2018-08-17T01:42:01.821Z,20.62
2018-08-17T01:42:32.989Z,21.30
2018-08-17T01:43:04.126Z,21.17
2018-08-17T01:43:35.306Z,20.90
2018-08-17T01:44:06.549Z,20.90
2018-08-17T01:44:37.776Z,20.08
2018-08-17T01:45:08.904Z,21.10
2018-08-17T01:45:40.085Z,20.52
2018-08-17T01:46:11.265Z,22.32
2018-08-17T01:46:42.432Z,21.73
2018-08-17T01:47:13.606Z,22.10
2018-08-17T01:47:44.776Z,21.40
2018-08-17T01:48:15.959Z,19.60
2018-08-17T01:48:47.149Z,20.20
2018-08-17T01:49:18.264Z,21.17
2018-08-17T01:49:49.436Z,20.97
2018-08-17T01:50:20.678Z,20.85
2018-08-17T01:50:51.851Z,21.73
2018-08-17T01:51:23.086Z,20.45
2018-08-17T01:51:54.265Z,20.23
2018-08-17T01:52:25.427Z,20.68
2018-08-17T01:52:56.537Z,20.43
2018-08-17T01:53:27.712Z,22.87
2018-08-17T01:53:58.831Z,21.57
2018-08-17T01:54:30.048Z,24.10
2018-08-17T01:55:01.201Z,23.73
2018-08-17T01:55:32.320Z,23.62
2018-08-17T01:56:03.428Z,24.43
2018-08-17T01:56:34.604Z,26.17
2018-08-17T01:57:05.741Z,24.47
2018-08-17T01:57:36.921Z,24.77
2018-08-17T01:58:08.036Z,24.63
2018-08-17T01:58:39.213Z,24.77
2018-08-17T01:59:10.331Z,25.52
2018-08-17T01:59:41.504Z,25.23
2018-08-17T02:00:12.713Z,25.95
2018-08-17T02:00:43.849Z,26.45
2018-08-17T02:01:15.012Z,24.52
2018-08-17T02:01:46.140Z,24.57
2018-08-17T02:02:17.260Z,24.98
2018-08-17T02:02:48.376Z,25.05
2018-08-17T02:03:19.509Z,26.00
2018-08-17T02:03:50.720Z,25.90
2018-08-17T02:04:21.832Z,25.05
2018-08-17T02:04:52.955Z,25.30
2018-08-17T02:05:24.132Z,24.92
2018-08-17T02:05:55.363Z,25.65
2018-08-17T02:06:26.526Z,24.37
2018-08-17T02:06:57.708Z,24.32
2018-08-17T02:07:28.821Z,24.82
2018-08-17T02:07:59.984Z,25.95
2018-08-17T02:08:31.221Z,25.37
2018-08-17T02:09:02.457Z,25.83
2018-08-17T02:09:33.628Z,24.37
2018-08-17T02:10:04.829Z,24.95
2018-08-17T02:10:36.009Z,25.17
2018-08-17T02:11:07.197Z,25.40
2018-08-17T02:11:38.385Z,25.90
2018-08-17T02:12:09.565Z,25.52
2018-08-17T02:12:40.673Z,24.18
2018-08-17T02:13:11.854Z,25.97
2018-08-17T02:13:42.975Z,26.60
2018-08-17T02:14:14.088Z,27.73
2018-08-17T02:14:45.370Z,27.58
2018-08-17T02:15:16.555Z,26.60
2018-08-17T02:15:47.785Z,26.40
2018-08-17T02:16:19.034Z,27.17
2018-08-17T02:16:50.278Z,28.17
2018-08-17T02:17:21.400Z,27.42
2018-08-17T02:17:52.577Z,28.85
2018-08-17T02:18:23.788Z,27.95
2018-08-17T02:18:55.025Z,27.73
2018-08-17T02:19:26.204Z,28.47
2018-08-17T02:19:57.311Z,25.77
2018-08-17T02:20:28.480Z,27.42
2018-08-17T02:20:59.656Z,25.95
2018-08-17T02:21:30.768Z,27.58
2018-08-17T02:22:01.998Z,27.75
2018-08-17T02:22:33.129Z,26.60
2018-08-17T02:23:04.240Z,28.05
2018-08-17T02:23:35.453Z,26.52
2018-08-17T02:24:06.573Z,25.37
2018-08-17T02:24:37.696Z,27.58
2018-08-17T02:25:08.886Z,25.85
2018-08-17T02:25:40.058Z,26.68
2018-08-17T02:26:11.183Z,27.67
2018-08-17T02:26:42.340Z,25.43
2018-08-17T02:27:13.525Z,25.27
2018-08-17T02:27:44.692Z,23.22
2018-08-17T02:28:15.852Z,23.42
2018-08-17T02:28:47.216Z,25.17
2018-08-17T02:29:18.400Z,23.50
2018-08-17T02:29:49.572Z,26.20
2018-08-17T02:30:20.818Z,26.20
2018-08-17T02:30:51.944Z,26.90
2018-08-17T02:31:23.137Z,26.12
2018-08-17T02:31:54.304Z,24.60
2018-08-17T02:32:25.420Z,22.82
2018-08-17T02:32:56.542Z,25.40
2018-08-17T02:33:27.721Z,24.65
2018-08-17T02:33:58.897Z,21.85
2018-08-17T02:34:30.028Z,21.73
2018-08-17T02:35:01.145Z,21.12
2018-08-17T02:35:32.328Z,21.70
2018-08-17T02:36:03.509Z,20.57
2018-08-17T02:36:34.688Z,19.20
2018-08-17T02:37:05.923Z,19.00
2018-08-17T02:37:37.109Z,18.48
2018-08-17T02:38:08.346Z,19.45
2018-08-17T02:38:39.476Z,18.98
2018-08-17T02:39:10.647Z,18.00
2018-08-17T02:39:41.772Z,18.15
2018-08-17T02:40:12.943Z,17.75
2018-08-17T02:40:44.068Z,17.50
2018-08-17T02:41:15.185Z,18.40
2018-08-17T02:41:46.369Z,18.17
2018-08-17T02:42:17.525Z,17.35
2018-08-17T02:42:48.757Z,17.70
2018-08-17T02:43:19.935Z,17.48
2018-08-17T02:43:51.117Z,17.32
2018-08-17T02:44:22.283Z,16.82
2018-08-17T02:44:53.516Z,17.02
2018-08-17T02:45:24.650Z,15.53
2018-08-17T02:45:55.775Z,16.37
2018-08-17T02:46:26.961Z,15.72
2018-08-17T02:46:58.150Z,16.30
2018-08-17T02:47:29.272Z,14.10
2018-08-17T02:48:00.449Z,16.00
2018-08-17T02:48:31.727Z,15.60
2018-08-17T02:49:02.859Z,14.73
2018-08-17T02:49:34.045Z,14.58
2018-08-17T02:50:05.167Z,14.90
2018-08-17T02:50:36.345Z,15.25
2018-08-17T02:51:07.501Z,15.75
2018-08-17T02:51:38.684Z,15.43
2018-08-17T02:52:09.874Z,14.45
2018-08-17T02:52:40.995Z,14.73
2018-08-17T02:53:12.126Z,14.87
2018-08-17T02:53:43.252Z,13.62
2018-08-17T02:54:14.463Z,13.85
2018-08-17T02:54:45.645Z,13.68
2018-08-17T02:55:16.771Z,14.75
2018-08-17T02:55:47.953Z,14.00
2018-08-17T02:56:19.112Z,13.95
2018-08-17T02:56:50.223Z,13.80
2018-08-17T02:57:21.403Z,14.57
2018-08-17T02:57:52.582Z,15.08
2018-08-17T02:58:23.832Z,13.60
2018-08-17T02:58:54.961Z,13.65
2018-08-17T02:59:26.149Z,12.85
2018-08-17T02:59:57.283Z,13.40
2018-08-17T03:00:28.448Z,13.53
2018-08-17T03:00:59.625Z,13.48
2018-08-17T03:01:30.809Z,13.68
2018-08-17T03:02:02.009Z,13.88
2018-08-17T03:02:33.185Z,14.00
2018-08-17T03:03:04.364Z,14.53
2018-08-17T03:03:35.484Z,13.72
2018-08-17T03:04:06.600Z,12.85
2018-08-17T03:04:37.724Z,13.35
2018-08-17T03:05:08.885Z,13.80
2018-08-17T03:05:40.057Z,13.10
2018-08-17T03:06:11.236Z,12.80
2018-08-17T03:06:42.364Z,12.78
2018-08-17T03:07:13.485Z,12.98
2018-08-17T03:07:44.647Z,12.43
2018-08-17T03:08:15.872Z,13.13
2018-08-17T03:08:46.996Z,13.75
2018-08-17T03:09:18.165Z,13.35
2018-08-17T03:09:49.363Z,13.80
2018-08-17T03:10:20.489Z,14.10
2018-08-17T03:10:51.614Z,13.85
2018-08-17T03:11:22.857Z,13.95
2018-08-17T03:11:54.036Z,14.40
2018-08-17T03:12:25.225Z,14.50
2018-08-17T03:12:56.436Z,14.87
2018-08-17T03:13:27.568Z,14.65
2018-08-17T03:13:58.741Z,13.70
2018-08-17T03:14:29.994Z,14.58
2018-08-17T03:15:01.188Z,14.73
2018-08-17T03:15:32.329Z,15.15
2018-08-17T03:16:03.447Z,14.38
2018-08-17T03:16:34.571Z,14.58
2018-08-17T03:17:05.935Z,15.13
2018-08-17T03:17:37.102Z,15.65
2018-08-17T03:18:08.269Z,16.27
2018-08-17T03:18:39.398Z,16.25
2018-08-17T03:19:11.163Z,15.65
2018-08-17T03:19:42.442Z,15.08
2018-08-17T03:20:13.566Z,15.23
2018-08-17T03:20:44.748Z,15.38
2018-08-17T03:21:15.882Z,15.58
2018-08-17T03:21:47.105Z,15.85
2018-08-17T03:22:18.289Z,16.32
2018-08-17T03:22:49.462Z,15.28
2018-08-17T03:23:20.588Z,14.70
2018-08-17T03:23:51.730Z,15.55
2018-08-17T03:24:23.002Z,15.48
2018-08-17T03:24:54.137Z,15.43
2018-08-17T03:25:25.252Z,14.93
2018-08-17T03:25:56.365Z,14.60
2018-08-17T03:26:27.494Z,15.65
2018-08-17T03:26:58.671Z,15.05
2018-08-17T03:27:29.853Z,15.60
2018-08-17T03:28:00.993Z,15.18
2018-08-17T03:28:32.118Z,14.75
2018-08-17T03:29:03.234Z,16.40
2018-08-17T03:29:34.409Z,16.02
2018-08-17T03:30:05.586Z,16.35
2018-08-17T03:30:36.711Z,14.87
2018-08-17T03:31:07.836Z,17.25
2018-08-17T03:31:38.947Z,16.00
2018-08-17T03:32:10.161Z,16.62
2018-08-17T03:32:41.338Z,15.83
2018-08-17T03:33:12.461Z,17.07
2018-08-17T03:33:43.581Z,15.35
2018-08-17T03:34:14.753Z,16.17
2018-08-17T03:34:45.884Z,17.55
2018-08-17T03:35:17.004Z,17.23
2018-08-17T03:35:48.237Z,17.02
2018-08-17T03:36:19.371Z,16.23
2018-08-17T03:36:50.576Z,16.25
2018-08-17T03:37:21.765Z,15.90
2018-08-17T03:37:52.929Z,15.78
2018-08-17T03:38:24.171Z,17.02
2018-08-17T03:38:55.297Z,16.50
2018-08-17T03:39:26.405Z,15.55
2018-08-17T03:39:57.577Z,15.72
2018-08-17T03:40:28.764Z,15.83
2018-08-17T03:40:59.885Z,18.85
2018-08-17T03:41:31.060Z,15.98
2018-08-17T03:42:02.284Z,16.07
2018-08-17T03:42:33.411Z,16.45
2018-08-17T03:43:04.589Z,17.15
2018-08-17T03:43:35.768Z,15.90
2018-08-17T03:44:06.949Z,14.35
2018-08-17T03:44:38.125Z,15.10
2018-08-17T03:45:09.253Z,15.38
2018-08-17T03:45:40.423Z,15.65
2018-08-17T03:46:11.644Z,14.75
2018-08-17T03:46:42.836Z,15.18
2018-08-17T03:47:13.950Z,15.28
2018-08-17T03:47:45.124Z,15.53
2018-08-17T03:48:16.246Z,15.98
2018-08-17T03:48:47.469Z,16.07
2018-08-17T03:49:18.639Z,15.75
2018-08-17T03:49:49.827Z,16.37
2018-08-17T03:50:20.979Z,15.68
2018-08-17T03:50:52.099Z,16.00
2018-08-17T03:51:23.260Z,15.53
2018-08-17T03:51:54.387Z,16.05
2018-08-17T03:52:25.572Z,15.48
2018-08-17T03:52:56.745Z,16.02
2018-08-17T03:53:27.868Z,15.90
2018-08-17T03:53:59.044Z,15.72
2018-08-17T03:54:30.222Z,17.52
2018-08-17T03:55:01.461Z,16.67
2018-08-17T03:55:32.628Z,15.83
2018-08-17T03:56:03.806Z,14.93
2018-08-17T03:56:34.924Z,15.38
2018-08-17T03:57:06.753Z,15.30
2018-08-17T03:57:37.996Z,14.87
2018-08-17T03:58:09.127Z,14.25
2018-08-17T03:58:40.312Z,14.33
2018-08-17T03:59:12.354Z,15.50
2018-08-17T03:59:43.580Z,15.35
2018-08-17T04:00:14.812Z,15.18
2018-08-17T04:00:45.975Z,14.70
2018-08-17T04:01:17.136Z,14.85
2018-08-17T04:01:48.304Z,15.63
2018-08-17T04:02:19.417Z,15.00
2018-08-17T04:02:50.579Z,14.40
2018-08-17T04:03:21.704Z,14.73
2018-08-17T04:03:52.884Z,14.65
2018-08-17T04:04:24.000Z,15.28
2018-08-17T04:04:55.176Z,14.40
2018-08-17T04:05:26.303Z,15.13
2018-08-17T04:05:57.486Z,15.18
2018-08-17T04:06:28.715Z,15.23
2018-08-17T04:06:59.915Z,15.23
2018-08-17T04:07:31.145Z,14.90
2018-08-17T04:08:02.330Z,14.53
2018-08-17T04:08:33.443Z,14.65
2018-08-17T04:09:04.563Z,14.53
2018-08-17T04:09:35.737Z,14.00
2018-08-17T04:10:06.904Z,13.72
2018-08-17T04:10:38.090Z,13.87
2018-08-17T04:11:09.261Z,14.20
2018-08-17T04:11:40.408Z,14.00
2018-08-17T04:12:11.579Z,14.47
2018-08-17T04:12:42.793Z,14.10
2018-08-17T04:13:13.941Z,13.60
2018-08-17T04:13:45.051Z,15.43
2018-08-17T04:14:16.236Z,14.03
2018-08-17T04:14:47.370Z,14.43
2018-08-17T04:15:18.491Z,13.50
2018-08-17T04:15:49.614Z,13.93
2018-08-17T04:16:20.720Z,13.30
2018-08-17T04:16:51.979Z,13.90
2018-08-17T04:17:23.152Z,13.50
2018-08-17T04:17:54.264Z,13.83
2018-08-17T04:18:25.375Z,14.23
2018-08-17T04:18:56.496Z,13.23
2018-08-17T04:19:27.659Z,13.77
2018-08-17T04:19:58.783Z,12.40
2018-08-17T04:20:29.896Z,13.00
2018-08-17T04:21:01.060Z,12.13
2018-08-17T04:21:32.171Z,12.87
2018-08-17T04:22:03.284Z,12.37
2018-08-17T04:22:34.509Z,13.10
2018-08-17T04:23:05.627Z,12.73
2018-08-17T04:23:36.801Z,12.30
2018-08-17T04:24:07.974Z,12.00
2018-08-17T04:24:39.195Z,12.90
2018-08-17T04:25:10.352Z,12.37
2018-08-17T04:25:41.522Z,10.93
2018-08-17T04:26:12.644Z,11.43
2018-08-17T04:26:43.748Z,12.40
2018-08-17T04:27:14.852Z,13.17
2018-08-17T04:27:45.969Z,11.63
2018-08-17T04:28:17.140Z,12.50
2018-08-17T04:28:48.312Z,12.00
2018-08-17T04:29:19.481Z,14.33
2018-08-17T04:29:50.600Z,12.83
2018-08-17T04:30:21.739Z,12.27
2018-08-17T04:30:52.844Z,11.27
2018-08-17T04:31:24.008Z,12.90
2018-08-17T04:31:55.185Z,10.90
2018-08-17T04:32:26.409Z,11.90
2018-08-17T04:32:57.524Z,11.50
2018-08-17T04:33:28.696Z,11.30
2018-08-17T04:33:59.856Z,12.00
2018-08-17T04:34:31.032Z,11.90
2018-08-17T04:35:02.148Z,10.93
2018-08-17T04:35:33.371Z,11.57
2018-08-17T04:36:04.456Z,11.73
2018-08-17T04:36:35.576Z,12.47
2018-08-17T04:37:06.750Z,11.00
2018-08-17T04:37:37.987Z,12.13
2018-08-17T04:38:09.182Z,12.00
2018-08-17T04:38:40.291Z,11.90
2018-08-17T04:39:11.422Z,10.50
2018-08-17T04:39:42.602Z,11.43
2018-08-17T04:40:13.773Z,10.83
2018-08-17T04:40:44.992Z,11.23
2018-08-17T04:41:16.115Z,11.10
2018-08-17T04:41:47.226Z,11.57
2018-08-17T04:42:18.404Z,11.67
2018-08-17T04:42:49.575Z,12.23
2018-08-17T04:43:20.700Z,10.13
2018-08-17T04:43:51.947Z,11.57
2018-08-17T04:44:23.079Z,10.73
2018-08-17T04:44:54.208Z,12.30
2018-08-17T04:45:25.390Z,10.60
2018-08-17T04:45:56.615Z,10.30
2018-08-17T04:46:27.795Z,11.40
2018-08-17T04:46:58.966Z,12.40
2018-08-17T04:47:30.088Z,12.17
2018-08-17T04:48:01.312Z,11.10
2018-08-17T04:48:32.428Z,11.27
2018-08-17T04:49:03.604Z,10.60
2018-08-17T04:49:34.765Z,10.97
2018-08-17T04:50:05.992Z,10.57
2018-08-17T04:50:37.118Z,10.47
2018-08-17T04:51:08.289Z,11.10
2018-08-17T04:51:39.411Z,11.47
2018-08-17T04:52:10.644Z,12.67
2018-08-17T04:52:41.816Z,10.60
2018-08-17T04:53:12.997Z,10.67
2018-08-17T04:53:44.112Z,10.43
2018-08-17T04:54:15.336Z,10.83
2018-08-17T04:54:46.513Z,9.80
2018-08-17T04:55:17.680Z,10.07
2018-08-17T04:55:48.807Z,10.47
2018-08-17T04:56:19.979Z,10.57
2018-08-17T04:56:51.103Z,10.37
2018-08-17T04:57:22.231Z,9.83
2018-08-17T04:57:53.347Z,10.33
2018-08-17T04:58:24.457Z,9.63
2018-08-17T04:58:55.581Z,10.33
2018-08-17T04:59:26.692Z,10.03
2018-08-17T04:59:57.869Z,11.10
2018-08-17T05:00:29.040Z,12.40
2018-08-17T05:01:00.214Z,10.70
2018-08-17T05:01:31.445Z,12.03
2018-08-17T05:02:02.622Z,11.60
2018-08-17T05:02:33.800Z,10.30
2018-08-17T05:03:04.936Z,10.83
2018-08-17T05:03:36.175Z,12.13
2018-08-17T05:04:07.366Z,10.77
2018-08-17T05:04:38.535Z,10.70
2018-08-17T05:05:09.665Z,10.97
2018-08-17T05:05:40.876Z,11.30
2018-08-17T05:06:12.052Z,10.37
2018-08-17T05:06:43.172Z,12.60
2018-08-17T05:07:14.387Z,10.90
2018-08-17T05:07:45.566Z,10.90
2018-08-17T05:08:16.752Z,11.33
2018-08-17T05:08:47.897Z,13.20
2018-08-17T05:09:19.074Z,10.53
2018-08-17T05:09:50.244Z,9.97
2018-08-17T05:10:21.432Z,11.10
2018-08-17T05:10:52.609Z,11.13
2018-08-17T05:11:23.778Z,10.47
2018-08-17T05:11:54.904Z,11.57
2018-08-17T05:12:26.137Z,11.93
2018-08-17T05:12:57.354Z,11.63
2018-08-17T05:13:28.545Z,11.90
2018-08-17T05:13:59.664Z,11.70
2018-08-17T05:14:30.790Z,11.90
2018-08-17T05:15:01.919Z,11.20
2018-08-17T05:15:33.092Z,10.77
2018-08-17T05:16:04.228Z,10.77
2018-08-17T05:16:35.348Z,10.57
2018-08-17T05:17:06.877Z,10.53
2018-08-17T05:17:38.011Z,11.43
2018-08-17T05:18:09.237Z,11.13
2018-08-17T05:18:40.429Z,11.07
2018-08-17T05:19:11.556Z,10.53
2018-08-17T05:19:42.688Z,11.13
2018-08-17T05:20:13.861Z,10.67
2018-08-17T05:20:45.045Z,11.47
2018-08-17T05:21:16.297Z,11.17
2018-08-17T05:21:47.484Z,11.10
2018-08-17T05:22:18.621Z,11.37
2018-08-17T05:22:49.751Z,11.07
2018-08-17T05:23:21.074Z,11.40
2018-08-17T05:23:52.200Z,10.43
2018-08-17T05:24:23.436Z,12.13
2018-08-17T05:24:54.628Z,11.40
2018-08-17T05:25:25.800Z,15.30
2018-08-17T05:25:56.929Z,12.23
2018-08-17T05:26:28.051Z,10.80
2018-08-17T05:26:59.256Z,11.07
2018-08-17T05:27:30.433Z,11.40
2018-08-17T05:28:01.612Z,10.90
2018-08-17T05:28:32.743Z,11.63
2018-08-17T05:29:03.925Z,11.57
2018-08-17T05:29:35.168Z,11.33
2018-08-17T05:30:06.357Z,11.40
2018-08-17T05:30:37.536Z,11.23
2018-08-17T05:31:08.658Z,11.73
2018-08-17T05:31:39.897Z,12.10
2018-08-17T05:32:11.024Z,11.87
2018-08-17T05:32:42.144Z,12.30
2018-08-17T05:33:13.369Z,11.47
2018-08-17T05:33:44.495Z,12.07
2018-08-17T05:34:15.757Z,12.90
2018-08-17T05:34:46.888Z,11.37
2018-08-17T05:35:18.544Z,13.43
2018-08-17T05:35:49.796Z,11.93
2018-08-17T05:36:20.959Z,11.87
2018-08-17T05:36:52.083Z,11.43
2018-08-17T05:37:23.214Z,11.67
2018-08-17T05:37:54.372Z,11.43
2018-08-17T05:38:25.532Z,12.37
2018-08-17T05:38:56.713Z,13.87
2018-08-17T05:39:27.837Z,12.73
2018-08-17T05:39:59.074Z,12.07
2018-08-17T05:40:30.297Z,12.20
2018-08-17T05:41:01.537Z,12.83
2018-08-17T05:41:32.717Z,12.20
2018-08-17T05:42:03.905Z,12.57
2018-08-17T05:42:35.078Z,12.30
2018-08-17T05:43:06.286Z,12.07
2018-08-17T05:43:37.416Z,11.60
2018-08-17T05:44:08.537Z,12.57
2018-08-17T05:44:39.873Z,12.27
2018-08-17T05:45:11.036Z,12.67
2018-08-17T05:45:42.202Z,12.63
2018-08-17T05:46:13.391Z,13.10
2018-08-17T05:46:44.584Z,12.97
2018-08-17T05:47:15.824Z,12.80
2018-08-17T05:47:46.948Z,14.13
2018-08-17T05:48:18.146Z,11.80
2018-08-17T05:48:49.378Z,12.00
2018-08-17T05:49:20.564Z,12.03
2018-08-17T05:49:51.781Z,12.30
2018-08-17T05:50:22.948Z,12.50
2018-08-17T05:50:54.089Z,12.30
2018-08-17T05:51:25.280Z,11.87
2018-08-17T05:51:56.480Z,11.77
2018-08-17T05:52:27.629Z,12.37
2018-08-17T05:52:58.880Z,11.73
2018-08-17T05:53:30.042Z,11.60
2018-08-17T05:54:01.216Z,11.70
2018-08-17T05:54:32.411Z,12.13
2018-08-17T05:55:03.544Z,11.03
2018-08-17T05:55:34.748Z,11.60
2018-08-17T05:56:05.916Z,11.53
2018-08-17T05:56:37.119Z,10.63
2018-08-17T05:57:08.291Z,10.40
2018-08-17T05:57:39.512Z,11.23
2018-08-17T05:58:10.733Z,11.07
2018-08-17T05:58:41.860Z,10.13
2018-08-17T05:59:12.970Z,9.80
2018-08-17T05:59:44.092Z,10.37
2018-08-17T06:00:15.272Z,9.93
2018-08-17T06:00:46.430Z,9.83
2018-08-17T06:01:17.597Z,9.90
2018-08-17T06:01:48.777Z,13.10
2018-08-17T06:02:20.006Z,9.43
2018-08-17T06:02:51.182Z,9.40
2018-08-17T06:03:22.457Z,9.27
2018-08-17T06:03:53.597Z,9.23
2018-08-17T06:04:24.706Z,9.00
2018-08-17T06:04:55.862Z,9.30
2018-08-17T06:05:27.054Z,9.18
2018-08-17T06:05:58.233Z,9.60
2018-08-17T06:06:29.410Z,9.18
2018-08-17T06:07:00.518Z,8.70
2018-08-17T06:07:31.666Z,8.47
2018-08-17T06:08:02.876Z,9.50
2018-08-17T06:08:33.984Z,9.53
2018-08-17T06:09:05.107Z,8.90
2018-08-17T06:09:36.223Z,8.33
2018-08-17T06:10:07.384Z,9.83
2018-08-17T06:10:38.564Z,8.83
2018-08-17T06:11:09.922Z,9.20
2018-08-17T06:11:40.948Z,10.93
2018-08-17T06:12:12.040Z,9.13
2018-08-17T06:12:43.203Z,9.00
2018-08-17T06:13:14.356Z,8.60
2018-08-17T06:13:45.541Z,10.00
2018-08-17T06:14:16.760Z,8.20
2018-08-17T06:14:47.893Z,8.80
2018-08-17T06:15:19.016Z,8.65
2018-08-17T06:15:50.189Z,7.95
2018-08-17T06:16:21.362Z,8.50
2018-08-17T06:16:52.530Z,8.10
2018-08-17T06:17:23.708Z,7.95
2018-08-17T06:17:54.977Z,7.90
2018-08-17T06:18:26.165Z,8.57
2018-08-17T06:18:57.333Z,11.60
2018-08-17T06:19:28.524Z,7.93
2018-08-17T06:19:59.764Z,8.05
2018-08-17T06:20:30.884Z,10.15
2018-08-17T06:21:01.984Z,9.33
2018-08-17T06:21:33.165Z,9.33
2018-08-17T06:22:04.331Z,9.55
2018-08-17T06:22:35.503Z,9.43
2018-08-17T06:23:06.680Z,8.68
2018-08-17T06:23:37.897Z,9.55
2018-08-17T06:24:09.106Z,10.23
2018-08-17T06:24:40.317Z,7.60
2018-08-17T06:25:11.468Z,7.60
2018-08-17T06:25:42.634Z,8.25
2018-08-17T06:26:13.809Z,9.70
2018-08-17T06:26:44.991Z,7.80
2018-08-17T06:27:16.148Z,7.42
2018-08-17T06:27:47.265Z,7.60
2018-08-17T06:28:18.461Z,7.85
2018-08-17T06:28:49.652Z,8.00
2018-08-17T06:29:20.767Z,9.03
2018-08-17T06:29:51.945Z,7.30
2018-08-17T06:30:23.116Z,7.47
2018-08-17T06:30:54.303Z,7.22
2018-08-17T06:31:25.485Z,7.10
2018-08-17T06:31:56.649Z,7.97
2018-08-17T06:32:27.903Z,7.57
2018-08-17T06:32:59.015Z,7.13
2018-08-17T06:33:30.128Z,7.15
2018-08-17T06:34:01.238Z,10.27
2018-08-17T06:34:32.365Z,7.70
2018-08-17T06:35:03.540Z,8.23
2018-08-17T06:35:34.666Z,7.28
2018-08-17T06:36:05.885Z,7.17
2018-08-17T06:36:37.164Z,9.10
2018-08-17T06:37:08.315Z,9.05
2018-08-17T06:37:39.528Z,8.03
2018-08-17T06:38:10.765Z,13.28
2018-08-17T06:38:41.883Z,9.55
2018-08-17T06:39:13.092Z,8.08
2018-08-17T06:39:44.211Z,8.15
2018-08-17T06:40:15.323Z,9.00
2018-08-17T06:40:46.445Z,7.22
2018-08-17T06:41:17.570Z,7.40
2018-08-17T06:41:48.697Z,7.97
2018-08-17T06:42:19.824Z,9.85
2018-08-17T06:42:50.928Z,7.78